Wesley Chapel, Arkansas
Current Conditions -  °F | °C
As of 1:53 AM on Thursday 18 Dec 2014 (Local Time) from KRUE Reporting Station
Unknown Precip Unknown Precip  
Wind Chill: 31°   Ceiling: 4100
Heat Index: 36°   Visibility: 7mi
Dew Point: 33°   Wind: 6mph
Humidity: 89%   Direction: 90°E
Pressure: 30.22"   Gusts: NA
Location:  35.227°N, 92.6879°W
Report Text: KRUE 180753Z AUTO 09005KT 7SM UP BKN041 BKN050 OVC070 02/01 A3022 RMK AO2 RAB40E52 SLP234 P0003 T00220006
Loading
Personal Weather Stations






























Interactive Weather Map New forecast layout! Learn more

10-Day Weather Forecast

Advertisements
Track Severe Weather on mobile